PGR weather

Kirk Field
Paragould, Arkansas, United States

Public forecast

Using degrees Fahrenheit for public forecast. Weather courtesy of forecast.io.

Closest aviation weather report (METAR) to Kirk Field

Closest report is Jonesboro Municipal Airport, 15.4 nm (28.6 km) SSW. Retrieved 2019/10/15 10:37 UTC (0 seconds ago):

KJBR 151037Z AUTO 05004KT 10SM OVC029 12/11 A3000

Closest aviation forecast (TAF) to Kirk Field

Closest forecast is Jonesboro Municipal Airport, 15.4 nm (28.6 km) SSW. Retrieved 2019/10/15 06:22 UTC (4 hours ago):

TAF KJBR 150520Z 1506/1606 VRB03KT P6SM BKN250 FM151500 20008KT P6SM BKN025 BKN035 FM160200 30004KT P6SM -SHRA SCT007 OVC015 FM160500 33009KT P6SM OVC020